Connecticut River @ Wells River, Vt

Connecticut River at Wells River
 Total Drainage Area: 2,644 sq. miles 
 Drainage Area Controlled by Corps Dams: 0 sq. miles (0%) 
 Warning Flow/Stage: 19,700 cfs / 7.5 feet 
 Flood Flow/Stage: 44,500 cfs / 13.0 feet 
Date Time
(Eastern)
Stage
(ft)
Flow
(cfs)
CSM
(cfs / sq. mi.)
Jun-25 12:30 am 5.01 8,182 3.1
Jun-24 11:30 pm 5.01 8,182 3.1
Jun-24 10:30 pm 5.00 8,146 3.1
Jun-24 09:30 pm 4.99 8,110 3.1
Jun-24 08:30 pm 4.98 8,075 3.1
Jun-24 07:30 pm 4.95 7,969 3.0
Jun-24 06:30 pm 4.95 7,969 3.0
Jun-24 05:30 pm 4.95 7,969 3.0
Jun-24 04:30 pm 4.96 8,004 3.0
Jun-24 03:30 pm 4.92 7,863 3.0
Jun-24 02:30 pm 4.87 7,688 2.9
Jun-24 01:30 pm 4.93 7,898 3.0
Jun-24 12:30 pm 4.92 7,863 3.0
Jun-24 11:30 am 4.88 7,723 2.9
Jun-24 10:30 am 4.85 7,619 2.9
Jun-24 09:30 am 4.80 7,446 2.8
Jun-24 08:30 am 4.78 7,378 2.8
Jun-24 07:30 am 4.80 7,446 2.8
Jun-24 06:30 am 4.82 7,515 2.8
Jun-24 05:30 am 4.80 7,446 2.8
Jun-24 04:30 am 4.77 7,343 2.8
Jun-24 03:30 am 4.71 7,139 2.7
Jun-24 02:30 am 4.62 6,837 2.6
Jun-24 01:30 am 4.54 6,574 2.5
Jun-24 12:30 am 4.51 6,476 2.5
Report Generated June 25, 2024 01:24 am